createdAt,value
2022-12-08T05:04:04.082Z,98863.38
2022-12-08T05:08:08.155Z,98864.03
2022-12-08T05:12:10.846Z,98869.19
2022-12-08T05:16:16.003Z,98865.69
2022-12-08T05:20:20.626Z,98872.97
2022-12-08T05:24:23.265Z,98851.34
2022-12-08T05:28:41.257Z,98864.03
2022-12-08T05:32:45.188Z,98849.75
2022-12-08T05:36:49.241Z,98848.84
2022-12-08T05:40:51.832Z,98848.25
2022-12-08T05:44:54.549Z,98844.69
2022-12-08T05:48:57.291Z,98844.44
2022-12-08T05:53:01.341Z,98844.97
2022-12-08T05:57:04.113Z,98845.78
2022-12-08T06:01:06.933Z,98827.03
2022-12-08T06:05:09.813Z,98828.69
2022-12-08T06:09:13.712Z,98812.00
2022-12-08T06:13:16.766Z,98812.00
2022-12-08T06:17:19.459Z,98809.41
2022-12-08T06:21:22.399Z,98811.44
2022-12-08T06:25:26.654Z,98809.78
2022-12-08T06:29:29.250Z,98813.41
2022-12-08T06:33:32.008Z,98818.88
2022-12-08T06:37:34.706Z,98814.75
2022-12-08T06:41:58.819Z,98822.81
2022-12-08T06:46:01.752Z,98825.34
2022-12-08T06:50:06.207Z,98812.00
2022-12-08T06:54:08.977Z,98818.66
2022-12-08T06:58:13.989Z,98818.41
2022-12-08T07:02:17.167Z,98811.09
2022-12-08T07:06:23.310Z,98817.16
2022-12-08T07:10:25.953Z,98822.34
2022-12-08T07:14:30.222Z,98820.13
2022-12-08T07:18:32.837Z,98819.75
2022-12-08T07:22:35.475Z,98812.69
2022-12-08T07:26:38.118Z,98813.81
2022-12-08T07:30:42.142Z,98816.94
2022-12-08T07:34:47.110Z,98819.63
2022-12-08T07:38:50.826Z,98806.25
2022-12-08T07:42:53.317Z,98809.94
2022-12-08T07:46:57.262Z,98809.94
2022-12-08T07:51:03.746Z,98808.41
2022-12-08T07:55:07.324Z,98803.59
2022-12-08T07:59:09.814Z,98805.06
2022-12-08T08:03:13.845Z,98801.94
2022-12-08T08:07:16.554Z,98797.06
2022-12-08T08:11:21.556Z,98806.06
2022-12-08T08:15:24.443Z,98808.59
2022-12-08T08:19:28.511Z,98804.25
2022-12-08T08:23:31.196Z,98799.09
2022-12-08T08:27:33.818Z,98797.44
2022-12-08T08:31:36.518Z,98796.22
2022-12-08T08:35:40.803Z,98802.38
2022-12-08T08:39:43.542Z,98794.56
2022-12-08T08:43:46.124Z,98800.19
2022-12-08T08:47:48.751Z,98793.63
2022-12-08T08:51:52.709Z,98796.97
2022-12-08T08:55:55.675Z,98797.91
2022-12-08T08:59:58.273Z,98803.69
2022-12-08T09:04:01.369Z,98805.53
2022-12-08T09:08:05.729Z,98806.53
2022-12-08T09:12:08.703Z,98801.47
2022-12-08T09:16:12.932Z,98798.69
2022-12-08T09:20:15.660Z,98801.31
2022-12-08T09:24:19.643Z,98798.84
2022-12-08T09:28:22.270Z,98796.63
2022-12-08T09:32:24.906Z,98795.28
2022-12-08T09:36:27.693Z,98798.78
2022-12-08T09:40:36.889Z,98796.47
2022-12-08T09:44:49.462Z,98796.31
2022-12-08T09:48:56.001Z,98799.44
2022-12-08T09:53:04.285Z,98793.91
2022-12-08T09:57:16.136Z,98794.91
2022-12-08T10:01:20.466Z,98785.78
2022-12-08T10:05:25.710Z,98779.38
2022-12-08T10:09:40.954Z,98784.50
2022-12-08T10:13:59.766Z,98778.63
2022-12-08T10:18:04.933Z,98772.44
2022-12-08T10:22:19.504Z,98774.91
2022-12-08T10:26:23.404Z,98773.03
2022-12-08T10:30:27.699Z,98775.91
2022-12-08T10:34:30.358Z,98763.72
2022-12-08T10:38:34.234Z,98768.69
2022-12-08T10:42:39.899Z,98767.03
2022-12-08T10:46:44.107Z,98762.91
2022-12-08T10:50:49.093Z,98758.09
2022-12-08T10:54:55.914Z,98764.03
2022-12-08T10:59:16.028Z,98760.47
2022-12-08T11:03:25.900Z,98758.34
2022-12-08T11:07:29.097Z,98759.22
2022-12-08T11:11:40.254Z,98749.06
2022-12-08T11:15:47.024Z,98753.41
2022-12-08T11:19:58.739Z,98759.25
2022-12-08T11:24:23.188Z,98753.34
2022-12-08T11:28:26.688Z,98760.16
2022-12-08T11:32:29.272Z,98755.53
2022-12-08T11:36:36.108Z,98753.13
2022-12-08T11:40:41.174Z,98745.09
2022-12-08T11:44:50.281Z,98749.59
2022-12-08T11:48:55.696Z,98754.63
2022-12-08T11:53:02.375Z,98745.97
2022-12-08T11:57:10.145Z,98753.03
2022-12-08T12:01:20.982Z,98748.34
2022-12-08T12:06:03.289Z,98750.63
2022-12-08T12:10:14.494Z,98751.25
2022-12-08T12:14:31.417Z,98751.63
2022-12-08T12:18:40.205Z,98753.69
2022-12-08T12:22:45.738Z,98747.94
2022-12-08T12:26:58.560Z,98744.94
2022-12-08T12:31:06.093Z,98751.72
2022-12-08T12:35:18.061Z,98737.56
2022-12-08T12:39:24.570Z,98742.91
2022-12-08T12:43:35.037Z,98754.88
2022-12-08T12:47:54.288Z,98753.97
2022-12-08T12:51:58.758Z,98748.59
2022-12-08T12:56:04.136Z,98747.44
2022-12-08T13:00:20.406Z,98747.50
2022-12-08T13:04:32.011Z,98747.81
2022-12-08T13:08:34.874Z,98745.72
2022-12-08T13:12:37.836Z,98740.38
2022-12-08T13:16:41.923Z,98747.78
2022-12-08T13:20:51.608Z,98748.13
2022-12-08T13:24:54.237Z,98740.47
2022-12-08T13:29:22.417Z,98740.19
2022-12-08T13:33:30.259Z,98739.72
2022-12-08T13:37:45.739Z,98739.03
2022-12-08T13:42:01.520Z,98733.25
2022-12-08T13:56:30.727Z,98748.88
2022-12-08T13:59:30.449Z,98748.00
2022-12-08T14:03:45.116Z,98756.59
2022-12-08T14:08:02.234Z,98751.75
2022-12-08T14:12:09.929Z,98763.16
2022-12-08T14:16:27.575Z,98759.47
2022-12-08T14:20:33.829Z,98761.84
2022-12-08T14:24:48.242Z,98761.47
2022-12-08T14:28:51.573Z,98764.25
2022-12-08T14:32:58.303Z,98762.53
2022-12-08T14:37:01.008Z,98761.13
2022-12-08T14:41:07.868Z,98761.56
2022-12-08T14:45:14.026Z,98763.72
2022-12-08T14:49:35.602Z,98756.66
2022-12-08T14:53:40.982Z,98762.81
2022-12-08T14:57:49.121Z,98765.28
2022-12-08T15:01:54.429Z,98774.97
2022-12-08T15:05:59.681Z,98770.56
2022-12-08T15:10:21.097Z,98765.38
2022-12-08T15:14:33.458Z,98772.75
2022-12-08T15:18:38.424Z,98780.13
2022-12-08T15:22:41.090Z,98788.00
2022-12-08T15:26:46.772Z,98794.00
2022-12-08T15:30:51.386Z,98795.75
2022-12-08T15:34:54.049Z,98795.59
2022-12-08T15:38:56.812Z,98794.28
2022-12-08T15:42:59.436Z,98791.59
2022-12-08T15:47:03.661Z,98794.13
2022-12-08T15:51:06.305Z,98798.59
2022-12-08T15:55:13.348Z,98792.91
2022-12-08T15:59:19.083Z,98791.25
2022-12-08T16:04:13.836Z,98795.84
2022-12-08T16:07:53.126Z,98796.41
2022-12-08T16:12:18.115Z,98808.16
2022-12-08T16:16:27.360Z,98808.00
2022-12-08T16:20:58.955Z,98802.06
2022-12-08T16:24:54.384Z,98793.53
2022-12-08T16:28:57.580Z,98794.53
2022-12-08T16:33:00.269Z,98798.25
2022-12-08T16:37:04.271Z,98801.50
2022-12-08T16:41:24.532Z,98808.19
2022-12-08T16:45:29.734Z,98806.72
2022-12-08T16:49:32.462Z,98812.75
2022-12-08T16:53:36.462Z,98809.81
2022-12-08T16:57:39.404Z,98814.00
2022-12-08T17:01:42.101Z,98802.75
2022-12-08T17:05:44.901Z,98813.59
2022-12-08T17:09:48.859Z,98808.81
2022-12-08T17:13:51.493Z,98809.19
2022-12-08T17:17:54.954Z,98810.38
2022-12-08T17:21:57.463Z,98819.03
2022-12-08T17:26:02.083Z,98813.34
2022-12-08T17:30:06.398Z,98816.31
2022-12-08T17:34:10.290Z,98826.38
2022-12-08T17:38:12.985Z,98832.28
2022-12-08T17:42:16.925Z,98825.84
2022-12-08T17:46:20.599Z,98831.38
2022-12-08T17:50:23.268Z,98836.03
2022-12-08T17:54:27.247Z,98837.88
2022-12-08T17:58:32.181Z,98830.13
2022-12-08T18:02:37.726Z,98837.19
2022-12-08T18:06:40.829Z,98833.34
2022-12-08T18:10:43.615Z,98826.22
2022-12-08T18:14:48.195Z,98825.56
2022-12-08T18:18:51.203Z,98831.56
2022-12-08T18:22:53.835Z,98834.34
2022-12-08T18:26:57.804Z,98835.00
2022-12-08T18:31:01.910Z,98837.81
2022-12-08T18:35:04.925Z,98833.19
2022-12-08T18:39:10.945Z,98838.00
2022-12-08T18:43:13.777Z,98833.16
2022-12-08T18:47:17.847Z,98835.16
2022-12-08T18:51:23.240Z,98836.19
2022-12-08T18:55:25.956Z,98828.25
2022-12-08T18:59:28.640Z,98830.13
2022-12-08T19:03:32.595Z,98831.47
2022-12-08T19:07:36.747Z,98840.66
2022-12-08T19:11:39.766Z,98840.81
2022-12-08T19:15:42.538Z,98837.28
2022-12-08T19:19:46.731Z,98841.28
2022-12-08T19:23:53.613Z,98834.00
2022-12-08T19:27:56.717Z,98841.66
2022-12-08T19:32:00.311Z,98850.50
2022-12-08T19:36:06.791Z,98849.28
2022-12-08T19:40:32.372Z,98850.81
2022-12-08T19:44:52.643Z,98847.47
2022-12-08T19:48:55.469Z,98862.94
2022-12-08T19:52:59.509Z,98855.44
2022-12-08T19:57:02.569Z,98855.56
2022-12-08T20:01:05.228Z,98858.56
2022-12-08T20:05:09.651Z,98852.56
2022-12-08T20:09:14.114Z,98857.28
2022-12-08T20:13:34.270Z,98857.63
2022-12-08T20:17:36.927Z,98861.47
2022-12-08T20:21:40.360Z,98857.72
2022-12-08T20:25:45.414Z,98862.41
2022-12-08T20:29:48.038Z,98864.56
2022-12-08T20:33:50.860Z,98864.75
2022-12-08T20:37:53.552Z,98864.84
2022-12-08T20:41:58.636Z,98870.59
2022-12-08T20:46:01.321Z,98882.28
2022-12-08T20:50:05.062Z,98881.66
2022-12-08T20:54:09.632Z,98879.34
2022-12-08T20:58:14.240Z,98882.34
2022-12-08T21:02:17.590Z,98880.06
2022-12-08T21:06:23.318Z,98876.75
2022-12-08T21:10:26.770Z,98877.31
2022-12-08T21:14:30.628Z,98876.00
2022-12-08T21:18:39.193Z,98873.72
2022-12-08T21:22:42.451Z,98875.19
2022-12-08T21:26:45.320Z,98881.00
2022-12-08T21:30:49.687Z,98882.53
2022-12-08T21:34:52.415Z,98876.69
2022-12-08T21:38:58.253Z,98875.84
2022-12-08T21:43:02.095Z,98879.94
2022-12-08T21:47:06.580Z,98879.28
2022-12-08T21:51:09.920Z,98889.09
2022-12-08T21:55:13.826Z,98885.97
2022-12-08T21:59:16.715Z,98894.28
